createdAt,value
2023-01-31T00:07:58.544Z,4.80
2023-01-31T00:10:19.096Z,4.82
2023-01-31T00:12:20.497Z,4.78
2023-01-31T00:14:28.384Z,4.80
2023-01-31T00:16:50.426Z,4.75
2023-01-31T00:23:09.514Z,4.67
2023-01-31T00:27:11.591Z,4.60
2023-01-31T00:30:16.426Z,4.58
2023-01-31T00:31:46.102Z,4.52
2023-01-31T00:33:21.799Z,4.55
2023-01-31T00:35:40.998Z,4.45
2023-01-31T00:39:33.464Z,4.42
2023-01-31T00:41:05.248Z,4.40
2023-01-31T00:43:29.276Z,4.41
2023-01-31T00:47:39.548Z,4.35
2023-01-31T00:50:03.755Z,4.26
2023-01-31T00:54:00.337Z,4.31
2023-01-31T00:56:02.193Z,4.26
2023-01-31T01:01:41.129Z,4.20
2023-01-31T01:03:59.061Z,4.10
2023-01-31T01:04:58.982Z,4.17
2023-01-31T01:05:59.256Z,4.19
2023-01-31T01:08:01.333Z,4.08
2023-01-31T01:10:57.035Z,4.06
2023-01-31T01:18:01.014Z,3.81
2023-01-31T01:19:28.275Z,3.80
2023-01-31T01:22:39.308Z,3.84
2023-01-31T01:33:13.603Z,3.94
2023-01-31T01:36:34.935Z,3.86
2023-01-31T01:38:25.269Z,3.92
2023-01-31T01:40:00.165Z,3.95
2023-01-31T01:47:38.392Z,3.94
2023-01-31T01:51:40.636Z,3.94
2023-01-31T01:53:15.998Z,3.96
2023-01-31T01:55:15.794Z,3.99
2023-01-31T02:00:01.817Z,4.04
2023-01-31T02:02:53.341Z,3.99
2023-01-31T02:05:44.416Z,3.96
2023-01-31T02:07:19.269Z,3.95
2023-01-31T02:09:20.133Z,3.92
2023-01-31T02:10:49.317Z,3.87
2023-01-31T02:20:46.227Z,4.14
2023-01-31T02:22:43.144Z,3.98
2023-01-31T02:24:55.907Z,4.14
2023-01-31T02:26:24.806Z,4.23
2023-01-31T02:27:51.884Z,4.24
2023-01-31T02:30:20.823Z,4.30
2023-01-31T02:31:20.801Z,4.23
2023-01-31T02:32:21.472Z,4.05
2023-01-31T02:34:49.725Z,4.14
2023-01-31T02:36:19.446Z,4.13
2023-01-31T02:40:20.862Z,4.08
2023-01-31T02:43:10.242Z,4.04
2023-01-31T02:47:06.509Z,4.28
2023-01-31T02:48:37.325Z,4.35
2023-01-31T02:52:33.243Z,4.30
2023-01-31T02:53:40.665Z,4.35
2023-01-31T02:55:09.556Z,4.30
2023-01-31T03:04:26.831Z,4.53
2023-01-31T03:08:45.677Z,4.34
2023-01-31T03:15:00.229Z,4.34
2023-01-31T03:17:02.954Z,4.44
2023-01-31T03:18:37.419Z,4.53
2023-01-31T03:24:14.836Z,4.53
2023-01-31T03:25:43.735Z,4.55
2023-01-31T03:29:49.464Z,4.68
2023-01-31T03:31:17.746Z,4.59
2023-01-31T03:36:23.032Z,4.68
2023-01-31T03:37:53.853Z,4.63
2023-01-31T03:39:51.209Z,4.77
2023-01-31T03:47:55.599Z,4.90
2023-01-31T03:52:04.844Z,4.99
2023-01-31T03:56:58.294Z,5.10
2023-01-31T04:00:25.411Z,5.04
2023-01-31T04:01:53.968Z,5.10
2023-01-31T04:03:55.668Z,5.18
2023-01-31T04:06:30.010Z,5.17
2023-01-31T04:10:01.967Z,5.15
2023-01-31T04:13:31.105Z,5.07
2023-01-31T04:15:30.303Z,5.15
2023-01-31T04:17:01.900Z,5.23
2023-01-31T04:18:30.026Z,5.29
2023-01-31T04:20:48.667Z,5.38
2023-01-31T04:22:18.541Z,5.29
2023-01-31T04:26:56.704Z,5.29
2023-01-31T04:28:21.864Z,5.28
2023-01-31T04:31:12.035Z,5.35
2023-01-31T04:32:42.175Z,5.36
2023-01-31T04:35:30.622Z,5.32
2023-01-31T04:37:31.890Z,5.41
2023-01-31T04:40:29.921Z,5.28
2023-01-31T04:43:56.858Z,5.41
2023-01-31T04:55:01.600Z,5.38
2023-01-31T05:00:18.831Z,5.38
2023-01-31T05:02:19.125Z,5.38
2023-01-31T05:03:48.140Z,5.47
2023-01-31T05:05:46.779Z,5.43
2023-01-31T05:07:17.075Z,5.35
2023-01-31T05:12:59.901Z,5.32
2023-01-31T05:14:34.877Z,5.44
2023-01-31T05:20:13.698Z,5.53
2023-01-31T05:23:45.328Z,5.54
2023-01-31T05:26:56.850Z,5.44
2023-01-31T05:29:12.734Z,5.53
2023-01-31T05:39:58.045Z,5.47
2023-01-31T05:41:24.316Z,5.54
2023-01-31T05:45:42.178Z,5.59
2023-01-31T05:48:42.974Z,5.51
2023-01-31T05:55:16.305Z,5.48
2023-01-31T05:59:03.521Z,5.56
2023-01-31T06:00:34.343Z,5.62
2023-01-31T06:03:56.010Z,5.66
2023-01-31T06:08:24.743Z,5.61
2023-01-31T06:09:54.275Z,5.61
2023-01-31T06:11:25.102Z,5.69
2023-01-31T06:14:43.126Z,5.73
2023-01-31T06:16:14.490Z,5.71
2023-01-31T06:17:47.166Z,5.76
2023-01-31T06:22:36.643Z,5.80
2023-01-31T06:25:06.287Z,5.73
2023-01-31T06:34:10.690Z,5.84
2023-01-31T06:36:12.597Z,5.91
2023-01-31T06:38:13.713Z,5.91
2023-01-31T06:40:46.199Z,5.87
2023-01-31T06:42:17.246Z,5.87
2023-01-31T06:45:04.985Z,5.86
2023-01-31T06:48:25.913Z,5.98
2023-01-31T06:51:47.253Z,5.99
2023-01-31T07:00:24.318Z,6.05
2023-01-31T07:03:15.751Z,6.04
2023-01-31T07:06:12.564Z,6.07
2023-01-31T07:13:15.080Z,6.26
2023-01-31T07:16:35.376Z,6.20
2023-01-31T07:19:50.145Z,6.30
2023-01-31T07:22:40.683Z,6.30
2023-01-31T07:25:08.310Z,6.33
2023-01-31T07:29:38.486Z,6.27
2023-01-31T07:34:01.648Z,6.36
2023-01-31T07:40:16.737Z,6.38
2023-01-31T07:43:43.921Z,6.31
2023-01-31T07:47:01.862Z,6.48
2023-01-31T07:50:30.835Z,6.38
2023-01-31T07:54:26.117Z,6.28
2023-01-31T07:57:15.653Z,6.38
2023-01-31T08:02:05.625Z,6.46
2023-01-31T08:04:53.526Z,6.52
2023-01-31T08:10:55.376Z,6.51
2023-01-31T08:12:24.239Z,6.62
2023-01-31T08:14:55.472Z,6.45
2023-01-31T08:18:11.909Z,6.33
2023-01-31T08:20:02.297Z,6.45
2023-01-31T08:24:38.981Z,6.62
2023-01-31T08:28:45.114Z,6.64
2023-01-31T08:30:14.179Z,6.63
2023-01-31T08:33:07.762Z,6.66
2023-01-31T08:35:52.424Z,6.77
2023-01-31T08:37:21.422Z,6.72
2023-01-31T08:38:50.414Z,6.70
2023-01-31T08:41:18.324Z,6.78
2023-01-31T08:43:52.971Z,6.89
2023-01-31T08:47:42.377Z,6.88
2023-01-31T08:50:40.574Z,6.81
2023-01-31T08:52:09.219Z,6.85
2023-01-31T08:56:14.660Z,6.88
2023-01-31T08:59:02.406Z,6.74
2023-01-31T09:01:30.531Z,6.84
2023-01-31T09:04:08.796Z,6.87
2023-01-31T09:05:38.674Z,6.88
2023-01-31T09:08:05.648Z,6.96
2023-01-31T09:14:58.282Z,6.92
2023-01-31T09:16:28.235Z,6.87
2023-01-31T09:19:44.547Z,6.72
2023-01-31T09:21:14.878Z,6.82
2023-01-31T09:23:13.233Z,6.93
2023-01-31T09:29:57.149Z,6.99
2023-01-31T09:32:25.615Z,7.03
2023-01-31T09:35:50.725Z,7.25
2023-01-31T09:37:20.632Z,7.28
2023-01-31T09:39:48.252Z,7.07
2023-01-31T09:41:46.128Z,7.15
2023-01-31T09:48:12.263Z,7.13
2023-01-31T09:50:12.197Z,7.29
2023-01-31T09:51:41.197Z,7.28
2023-01-31T09:54:39.150Z,7.15
2023-01-31T09:56:08.058Z,7.20
2023-01-31T09:58:06.973Z,7.28
2023-01-31T10:03:50.902Z,7.17
2023-01-31T10:05:20.050Z,7.29
2023-01-31T10:07:09.447Z,7.20
2023-01-31T10:10:26.911Z,7.23
2023-01-31T10:12:24.739Z,7.31
2023-01-31T10:14:23.540Z,7.42
2023-01-31T10:21:05.077Z,7.39
2023-01-31T10:23:01.705Z,7.33
2023-01-31T10:24:30.617Z,7.38
2023-01-31T10:29:06.969Z,7.51
2023-01-31T10:32:32.949Z,7.63
2023-01-31T10:35:30.111Z,7.79
2023-01-31T10:37:50.441Z,7.77
2023-01-31T10:43:55.283Z,7.67
2023-01-31T10:45:24.248Z,7.83
2023-01-31T10:46:56.167Z,7.79
2023-01-31T10:48:23.307Z,7.87
2023-01-31T10:51:20.966Z,7.85
2023-01-31T10:53:23.316Z,7.82
2023-01-31T10:54:51.877Z,7.73
2023-01-31T10:56:50.300Z,7.82
2023-01-31T10:59:18.016Z,7.70
2023-01-31T11:06:42.901Z,7.69
2023-01-31T11:08:11.783Z,7.73
2023-01-31T11:11:41.534Z,7.66
2023-01-31T11:14:09.172Z,7.80
2023-01-31T11:15:40.503Z,7.85
2023-01-31T11:17:28.755Z,7.72
2023-01-31T11:18:58.341Z,7.77
2023-01-31T11:29:44.032Z,7.77
2023-01-31T11:35:50.422Z,7.72
2023-01-31T11:38:18.028Z,7.69
2023-01-31T11:40:16.875Z,7.73
2023-01-31T11:42:46.216Z,7.72
2023-01-31T11:48:22.084Z,7.72
2023-01-31T11:49:53.026Z,7.77
2023-01-31T11:51:50.783Z,7.77
2023-01-31T11:56:35.625Z,7.61
2023-01-31T11:58:05.687Z,7.67
2023-01-31T11:59:34.608Z,7.69
2023-01-31T12:01:32.310Z,7.60
2023-01-31T12:04:30.344Z,7.66
2023-01-31T12:06:58.526Z,7.51
2023-01-31T12:10:14.966Z,7.53
2023-01-31T12:16:26.969Z,7.48
2023-01-31T12:18:45.719Z,7.36
2023-01-31T12:20:27.586Z,7.40
2023-01-31T12:25:00.994Z,7.56
2023-01-31T12:28:28.970Z,7.50
2023-01-31T12:34:59.464Z,7.47
2023-01-31T12:40:39.527Z,7.50
2023-01-31T12:42:58.921Z,7.60
2023-01-31T12:47:24.750Z,7.72
2023-01-31T12:50:20.543Z,7.54
2023-01-31T12:56:33.759Z,7.66
2023-01-31T13:01:24.330Z,7.77
2023-01-31T13:04:45.336Z,7.79
2023-01-31T13:06:46.171Z,7.83
2023-01-31T13:08:11.414Z,7.82
2023-01-31T13:10:04.359Z,7.80
2023-01-31T13:14:25.377Z,7.83
2023-01-31T13:16:23.461Z,7.79
2023-01-31T13:18:23.393Z,7.95
2023-01-31T13:29:08.363Z,8.23
2023-01-31T13:33:00.046Z,8.20
2023-01-31T13:35:45.935Z,8.28
2023-01-31T13:39:26.313Z,8.28
2023-01-31T13:40:54.279Z,8.20
2023-01-31T13:45:40.964Z,8.26
2023-01-31T13:47:09.931Z,8.45
2023-01-31T13:48:40.254Z,8.48
2023-01-31T13:52:11.628Z,8.56
2023-01-31T13:58:00.597Z,8.64
2023-01-31T14:00:00.443Z,8.74
2023-01-31T14:02:01.440Z,8.61
2023-01-31T14:04:40.356Z,8.76
2023-01-31T14:06:07.025Z,8.85
2023-01-31T14:08:06.826Z,8.97
2023-01-31T14:10:27.477Z,8.89
2023-01-31T14:17:08.795Z,9.11
2023-01-31T14:20:06.413Z,9.14
2023-01-31T14:22:07.186Z,9.22
2023-01-31T14:23:37.572Z,9.14
2023-01-31T14:25:08.371Z,9.21
2023-01-31T14:28:08.786Z,9.08
2023-01-31T14:30:07.472Z,9.00
2023-01-31T14:34:18.045Z,8.99
2023-01-31T14:37:36.591Z,9.14
2023-01-31T14:39:03.808Z,9.16
2023-01-31T14:40:55.460Z,9.08
2023-01-31T14:44:43.863Z,8.97
2023-01-31T14:47:11.586Z,8.89
2023-01-31T14:49:10.313Z,8.95
2023-01-31T14:50:37.670Z,9.03
2023-01-31T14:57:04.595Z,9.03
2023-01-31T15:02:32.178Z,9.14
2023-01-31T15:05:04.045Z,9.02
2023-01-31T15:07:41.994Z,9.14
2023-01-31T15:12:54.178Z,9.21
2023-01-31T15:16:05.051Z,9.29
2023-01-31T15:18:24.524Z,9.40
2023-01-31T15:20:30.321Z,9.43
2023-01-31T15:21:59.547Z,9.37
2023-01-31T15:24:37.301Z,9.29
2023-01-31T15:26:55.554Z,9.22
2023-01-31T15:29:49.543Z,9.31
2023-01-31T15:36:10.748Z,9.34
2023-01-31T15:38:11.531Z,9.32
2023-01-31T15:41:36.757Z,9.46
2023-01-31T15:43:57.959Z,9.41
2023-01-31T15:47:18.679Z,9.51
2023-01-31T15:53:34.742Z,9.62
2023-01-31T15:56:05.969Z,9.46
2023-01-31T16:01:15.071Z,9.58
2023-01-31T16:04:39.605Z,9.68
2023-01-31T16:06:07.956Z,9.77
2023-01-31T16:09:16.292Z,9.55
2023-01-31T16:12:33.517Z,9.79
2023-01-31T16:15:01.639Z,9.64
2023-01-31T16:17:49.556Z,9.80
2023-01-31T16:19:48.591Z,9.66
2023-01-31T16:26:26.980Z,9.61
2023-01-31T16:31:13.919Z,9.56
2023-01-31T16:35:55.826Z,9.55
2023-01-31T16:36:32.222Z,9.59
2023-01-31T16:37:52.238Z,9.62
2023-01-31T16:39:01.702Z,9.55
2023-01-31T16:41:49.773Z,9.41
2023-01-31T16:47:48.736Z,9.36
2023-01-31T16:54:04.886Z,9.23
2023-01-31T16:56:02.677Z,9.19
2023-01-31T16:58:00.726Z,9.22
2023-01-31T16:59:31.704Z,9.26
2023-01-31T17:02:02.544Z,9.32
2023-01-31T17:05:12.783Z,9.31
2023-01-31T17:07:09.710Z,9.26
2023-01-31T17:09:14.705Z,9.32
2023-01-31T17:10:43.559Z,9.29
2023-01-31T17:13:01.509Z,9.36
2023-01-31T17:17:48.776Z,9.29
2023-01-31T17:18:48.661Z,9.25
2023-01-31T17:19:48.695Z,9.34
2023-01-31T17:20:48.677Z,9.37
2023-01-31T17:22:19.595Z,9.29
2023-01-31T17:24:18.574Z,9.29
2023-01-31T17:26:08.477Z,9.31
2023-01-31T17:29:56.977Z,9.39
2023-01-31T17:37:03.537Z,9.13
2023-01-31T17:38:35.217Z,9.13
2023-01-31T17:40:52.969Z,8.99
2023-01-31T17:45:56.554Z,8.99
2023-01-31T17:47:56.263Z,8.89
2023-01-31T17:49:53.326Z,8.78
2023-01-31T17:51:22.251Z,8.87
2023-01-31T17:52:52.187Z,8.85
2023-01-31T17:56:11.904Z,8.76
2023-01-31T17:57:58.760Z,8.76
2023-01-31T17:59:48.516Z,8.76
2023-01-31T18:01:18.729Z,8.73
2023-01-31T18:06:25.914Z,8.63
2023-01-31T18:07:56.761Z,8.67
2023-01-31T18:15:52.969Z,8.45
2023-01-31T18:18:45.222Z,8.49
2023-01-31T18:20:12.194Z,8.49
2023-01-31T18:26:00.963Z,8.34
2023-01-31T18:30:15.858Z,8.30
2023-01-31T18:31:45.050Z,8.38
2023-01-31T18:34:06.338Z,8.16
2023-01-31T18:35:33.374Z,8.15
2023-01-31T18:38:24.480Z,8.28
2023-01-31T18:46:03.667Z,8.12
2023-01-31T18:48:28.428Z,8.20
2023-01-31T18:54:08.162Z,8.12
2023-01-31T18:55:38.977Z,8.18
2023-01-31T18:58:48.564Z,8.23
2023-01-31T19:01:38.483Z,8.12
2023-01-31T19:06:48.942Z,8.10
2023-01-31T19:09:10.830Z,7.95
2023-01-31T19:15:11.976Z,7.87
2023-01-31T19:17:03.170Z,7.95
2023-01-31T19:18:41.365Z,7.93
2023-01-31T19:20:59.472Z,7.91
2023-01-31T19:24:23.842Z,7.95
2023-01-31T19:25:54.523Z,7.95
2023-01-31T19:27:44.183Z,7.94
2023-01-31T19:29:44.288Z,7.91
2023-01-31T19:34:51.900Z,7.75
2023-01-31T19:44:03.311Z,7.63
2023-01-31T19:46:21.896Z,7.63
2023-01-31T19:48:14.875Z,7.66
2023-01-31T19:49:43.131Z,7.63
2023-01-31T19:51:13.940Z,7.67
2023-01-31T19:55:10.069Z,7.76
2023-01-31T19:57:44.231Z,7.61
2023-01-31T20:00:01.434Z,7.63
2023-01-31T20:01:49.206Z,7.57
2023-01-31T20:05:09.204Z,7.69
2023-01-31T20:07:46.062Z,7.76
2023-01-31T20:11:44.365Z,7.53
2023-01-31T20:16:36.845Z,7.47
2023-01-31T20:20:36.399Z,7.48
2023-01-31T20:23:07.173Z,7.43
2023-01-31T20:26:38.107Z,7.39
2023-01-31T20:28:53.708Z,7.29
2023-01-31T20:30:53.349Z,7.32
2023-01-31T20:40:22.232Z,7.29
2023-01-31T20:45:37.473Z,7.25
2023-01-31T20:47:38.697Z,7.33
2023-01-31T20:54:52.322Z,7.20
2023-01-31T20:57:52.063Z,7.15
2023-01-31T21:01:04.095Z,7.02
2023-01-31T21:03:42.042Z,6.97
2023-01-31T21:05:29.784Z,7.11
2023-01-31T21:11:37.899Z,6.88
2023-01-31T21:13:58.699Z,6.95
2023-01-31T21:15:47.412Z,6.92
2023-01-31T21:19:11.028Z,6.74
2023-01-31T21:21:41.488Z,6.77
2023-01-31T21:28:04.402Z,6.72
2023-01-31T21:30:21.107Z,6.72
2023-01-31T21:32:38.457Z,6.63
2023-01-31T21:34:07.399Z,6.70
2023-01-31T21:36:38.543Z,6.72
2023-01-31T21:39:54.395Z,6.64
2023-01-31T21:41:26.240Z,6.66
2023-01-31T21:44:21.169Z,6.60
2023-01-31T21:50:02.456Z,6.66
2023-01-31T21:53:32.634Z,6.69
2023-01-31T21:55:31.537Z,6.69
2023-01-31T22:00:39.068Z,6.44
2023-01-31T22:03:36.626Z,6.54
2023-01-31T22:05:34.468Z,6.39
2023-01-31T22:09:29.571Z,6.45
2023-01-31T22:14:11.544Z,6.48
2023-01-31T22:16:10.323Z,6.45
2023-01-31T22:18:30.859Z,6.48
2023-01-31T22:20:00.750Z,6.48
2023-01-31T22:21:50.415Z,6.22
2023-01-31T22:31:13.926Z,6.44
2023-01-31T22:35:01.072Z,6.46
2023-01-31T22:41:48.425Z,6.38
2023-01-31T22:43:19.190Z,6.35
2023-01-31T22:46:20.888Z,6.27
2023-01-31T22:48:48.876Z,6.30
2023-01-31T22:53:39.298Z,6.38
2023-01-31T22:55:40.288Z,6.33
2023-01-31T22:57:40.255Z,6.39
2023-01-31T22:59:41.092Z,6.30
2023-01-31T23:03:27.702Z,6.36
2023-01-31T23:06:16.470Z,6.28
2023-01-31T23:08:16.071Z,6.39
2023-01-31T23:09:44.877Z,6.45
2023-01-31T23:15:19.065Z,6.27
2023-01-31T23:22:17.549Z,6.41
2023-01-31T23:23:46.452Z,6.41
2023-01-31T23:29:43.477Z,6.46
2023-01-31T23:31:16.444Z,6.41
2023-01-31T23:34:41.334Z,6.28
2023-01-31T23:41:54.029Z,6.35
2023-01-31T23:45:22.209Z,6.46
2023-01-31T23:46:49.525Z,6.51
2023-01-31T23:48:47.425Z,6.46
2023-01-31T23:50:17.366Z,6.45
